sensor_id;sensor_type;location;lat;lon;timestamp;P1;durP1;ratioP1;P2;durP2;ratioP2
82304;SDS011;71914;47.382;8.168;2024-01-25T00:01:11;0.70;;;0.30;;
82304;SDS011;71914;47.382;8.168;2024-01-25T00:03:36;0.73;;;0.50;;
82304;SDS011;71914;47.382;8.168;2024-01-25T00:06:02;1.67;;;0.52;;
82304;SDS011;71914;47.382;8.168;2024-01-25T00:08:28;0.93;;;0.52;;
82304;SDS011;71914;47.382;8.168;2024-01-25T00:10:54;0.60;;;0.30;;
82304;SDS011;71914;47.382;8.168;2024-01-25T00:13:20;0.85;;;0.57;;
82304;SDS011;71914;47.382;8.168;2024-01-25T00:15:47;0.70;;;0.30;;
82304;SDS011;71914;47.382;8.168;2024-01-25T00:18:12;0.30;;;0.10;;
82304;SDS011;71914;47.382;8.168;2024-01-25T00:20:38;0.38;;;0.30;;
82304;SDS011;71914;47.382;8.168;2024-01-25T00:23:03;1.40;;;0.30;;
82304;SDS011;71914;47.382;8.168;2024-01-25T00:25:29;0.77;;;0.30;;
82304;SDS011;71914;47.382;8.168;2024-01-25T00:27:55;2.40;;;0.50;;
82304;SDS011;71914;47.382;8.168;2024-01-25T00:30:20;0.95;;;0.20;;
82304;SDS011;71914;47.382;8.168;2024-01-25T00:32:48;0.32;;;0.20;;
82304;SDS011;71914;47.382;8.168;2024-01-25T00:35:14;0.20;;;0.03;;
82304;SDS011;71914;47.382;8.168;2024-01-25T00:40:06;0.32;;;0.10;;
82304;SDS011;71914;47.382;8.168;2024-01-25T00:42:33;0.95;;;0.10;;
82304;SDS011;71914;47.382;8.168;2024-01-25T00:45:06;2.85;;;0.10;;
82304;SDS011;71914;47.382;8.168;2024-01-25T00:47:32;0.30;;;0.05;;
82304;SDS011;71914;47.382;8.168;2024-01-25T00:50:00;0.08;;;0.08;;
82304;SDS011;71914;47.382;8.168;2024-01-25T00:52:27;1.25;;;0.10;;
82304;SDS011;71914;47.382;8.168;2024-01-25T00:54:53;0.68;;;0.10;;
82304;SDS011;71914;47.382;8.168;2024-01-25T00:57:19;0.38;;;0.03;;
82304;SDS011;71914;47.382;8.168;2024-01-25T00:59:45;0.00;;;0.00;;
82304;SDS011;71914;47.382;8.168;2024-01-25T01:02:12;0.30;;;0.10;;
82304;SDS011;71914;47.382;8.168;2024-01-25T01:04:39;0.05;;;0.03;;
82304;SDS011;71914;47.382;8.168;2024-01-25T01:07:07;0.05;;;0.03;;
82304;SDS011;71914;47.382;8.168;2024-01-25T01:09:34;0.00;;;0.00;;
82304;SDS011;71914;47.382;8.168;2024-01-25T01:12:00;0.20;;;0.03;;
82304;SDS011;71914;47.382;8.168;2024-01-25T01:14:25;1.25;;;0.10;;
82304;SDS011;71914;47.382;8.168;2024-01-25T01:16:51;0.00;;;0.00;;
82304;SDS011;71914;47.382;8.168;2024-01-25T01:19:16;0.40;;;0.30;;
82304;SDS011;71914;47.382;8.168;2024-01-25T01:21:42;0.17;;;0.10;;
82304;SDS011;71914;47.382;8.168;2024-01-25T01:24:10;0.10;;;0.00;;
82304;SDS011;71914;47.382;8.168;2024-01-25T01:26:36;0.08;;;0.08;;
82304;SDS011;71914;47.382;8.168;2024-01-25T01:29:02;0.38;;;0.10;;
82304;SDS011;71914;47.382;8.168;2024-01-25T01:31:27;0.10;;;0.00;;
82304;SDS011;71914;47.382;8.168;2024-01-25T01:33:53;0.08;;;0.08;;
82304;SDS011;71914;47.382;8.168;2024-01-25T01:36:19;0.10;;;0.10;;
82304;SDS011;71914;47.382;8.168;2024-01-25T01:38:45;0.20;;;0.20;;
82304;SDS011;71914;47.382;8.168;2024-01-25T01:41:12;0.38;;;0.10;;
82304;SDS011;71914;47.382;8.168;2024-01-25T01:43:38;0.30;;;0.10;;
82304;SDS011;71914;47.382;8.168;2024-01-25T01:46:04;0.00;;;0.00;;
82304;SDS011;71914;47.382;8.168;2024-01-25T01:48:45;0.70;;;0.20;;
82304;SDS011;71914;47.382;8.168;2024-01-25T01:51:11;0.28;;;0.13;;
82304;SDS011;71914;47.382;8.168;2024-01-25T01:53:37;0.50;;;0.20;;
82304;SDS011;71914;47.382;8.168;2024-01-25T01:56:03;0.22;;;0.10;;
82304;SDS011;71914;47.382;8.168;2024-01-25T01:58:31;0.20;;;0.10;;
82304;SDS011;71914;47.382;8.168;2024-01-25T02:00:58;0.73;;;0.22;;
82304;SDS011;71914;47.382;8.168;2024-01-25T02:05:50;0.40;;;0.20;;
82304;SDS011;71914;47.382;8.168;2024-01-25T02:08:15;0.38;;;0.20;;
82304;SDS011;71914;47.382;8.168;2024-01-25T02:10:41;0.50;;;0.20;;
82304;SDS011;71914;47.382;8.168;2024-01-25T02:13:08;0.43;;;0.30;;
82304;SDS011;71914;47.382;8.168;2024-01-25T02:15:35;0.10;;;0.10;;
82304;SDS011;71914;47.382;8.168;2024-01-25T02:18:01;0.77;;;0.30;;
82304;SDS011;71914;47.382;8.168;2024-01-25T02:20:26;0.05;;;0.00;;
82304;SDS011;71914;47.382;8.168;2024-01-25T02:22:53;0.43;;;0.20;;
82304;SDS011;71914;47.382;8.168;2024-01-25T02:25:19;0.50;;;0.20;;
82304;SDS011;71914;47.382;8.168;2024-01-25T02:27:44;0.40;;;0.20;;
82304;SDS011;71914;47.382;8.168;2024-01-25T02:30:10;0.17;;;0.10;;
82304;SDS011;71914;47.382;8.168;2024-01-25T02:32:36;0.43;;;0.40;;
82304;SDS011;71914;47.382;8.168;2024-01-25T02:35:02;1.67;;;0.60;;
82304;SDS011;71914;47.382;8.168;2024-01-25T02:37:27;0.82;;;0.47;;
82304;SDS011;71914;47.382;8.168;2024-01-25T02:39:54;1.13;;;0.90;;
82304;SDS011;71914;47.382;8.168;2024-01-25T02:42:20;1.58;;;1.05;;
82304;SDS011;71914;47.382;8.168;2024-01-25T02:44:46;1.48;;;1.02;;
82304;SDS011;71914;47.382;8.168;2024-01-25T02:47:11;2.35;;;1.20;;
82304;SDS011;71914;47.382;8.168;2024-01-25T02:49:37;1.63;;;1.35;;
82304;SDS011;71914;47.382;8.168;2024-01-25T02:52:03;2.17;;;1.33;;
82304;SDS011;71914;47.382;8.168;2024-01-25T02:54:29;2.05;;;1.60;;
82304;SDS011;71914;47.382;8.168;2024-01-25T02:56:56;2.65;;;1.77;;
82304;SDS011;71914;47.382;8.168;2024-01-25T02:59:21;2.15;;;1.30;;
82304;SDS011;71914;47.382;8.168;2024-01-25T03:01:48;3.25;;;2.25;;
82304;SDS011;71914;47.382;8.168;2024-01-25T03:04:14;2.25;;;1.30;;
82304;SDS011;71914;47.382;8.168;2024-01-25T03:06:39;2.20;;;1.40;;
82304;SDS011;71914;47.382;8.168;2024-01-25T03:09:05;2.05;;;1.20;;
82304;SDS011;71914;47.382;8.168;2024-01-25T03:11:31;1.45;;;1.30;;
82304;SDS011;71914;47.382;8.168;2024-01-25T03:13:58;3.30;;;1.40;;
82304;SDS011;71914;47.382;8.168;2024-01-25T03:16:23;2.00;;;1.00;;
82304;SDS011;71914;47.382;8.168;2024-01-25T03:18:49;1.20;;;0.70;;
82304;SDS011;71914;47.382;8.168;2024-01-25T03:21:14;1.98;;;1.20;;
82304;SDS011;71914;47.382;8.168;2024-01-25T03:23:40;2.00;;;1.40;;
82304;SDS011;71914;47.382;8.168;2024-01-25T03:26:06;2.00;;;1.38;;
82304;SDS011;71914;47.382;8.168;2024-01-25T03:28:32;2.65;;;1.27;;
82304;SDS011;71914;47.382;8.168;2024-01-25T03:31:00;1.90;;;1.23;;
82304;SDS011;71914;47.382;8.168;2024-01-25T03:33:26;2.28;;;1.20;;
82304;SDS011;71914;47.382;8.168;2024-01-25T03:35:53;1.58;;;1.10;;
82304;SDS011;71914;47.382;8.168;2024-01-25T03:38:18;1.75;;;1.15;;
82304;SDS011;71914;47.382;8.168;2024-01-25T03:40:44;1.42;;;0.80;;
82304;SDS011;71914;47.382;8.168;2024-01-25T03:43:10;2.35;;;0.80;;
82304;SDS011;71914;47.382;8.168;2024-01-25T03:45:35;1.23;;;0.70;;
82304;SDS011;71914;47.382;8.168;2024-01-25T03:48:02;0.82;;;0.57;;
82304;SDS011;71914;47.382;8.168;2024-01-25T03:50:28;1.52;;;0.40;;
82304;SDS011;71914;47.382;8.168;2024-01-25T03:52:54;0.68;;;0.35;;
82304;SDS011;71914;47.382;8.168;2024-01-25T03:55:20;1.13;;;0.38;;
82304;SDS011;71914;47.382;8.168;2024-01-25T03:57:45;0.25;;;0.20;;
82304;SDS011;71914;47.382;8.168;2024-01-25T04:00:11;0.57;;;0.35;;
82304;SDS011;71914;47.382;8.168;2024-01-25T04:02:37;0.50;;;0.32;;
82304;SDS011;71914;47.382;8.168;2024-01-25T04:05:05;0.93;;;0.47;;
82304;SDS011;71914;47.382;8.168;2024-01-25T04:07:31;0.75;;;0.40;;
82304;SDS011;71914;47.382;8.168;2024-01-25T04:09:56;0.73;;;0.30;;
82304;SDS011;71914;47.382;8.168;2024-01-25T04:12:22;1.20;;;0.40;;
82304;SDS011;71914;47.382;8.168;2024-01-25T04:17:14;1.75;;;0.30;;
82304;SDS011;71914;47.382;8.168;2024-01-25T04:19:39;0.80;;;0.40;;
82304;SDS011;71914;47.382;8.168;2024-01-25T04:22:06;1.58;;;0.30;;
82304;SDS011;71914;47.382;8.168;2024-01-25T04:24:32;1.20;;;0.77;;
82304;SDS011;71914;47.382;8.168;2024-01-25T04:26:58;1.10;;;0.38;;
82304;SDS011;71914;47.382;8.168;2024-01-25T04:29:24;0.55;;;0.30;;
82304;SDS011;71914;47.382;8.168;2024-01-25T04:31:50;0.77;;;0.40;;
82304;SDS011;71914;47.382;8.168;2024-01-25T04:34:15;0.68;;;0.30;;
82304;SDS011;71914;47.382;8.168;2024-01-25T04:36:41;1.00;;;0.50;;
82304;SDS011;71914;47.382;8.168;2024-01-25T04:39:09;1.80;;;0.40;;
82304;SDS011;71914;47.382;8.168;2024-01-25T04:41:35;0.88;;;0.40;;
82304;SDS011;71914;47.382;8.168;2024-01-25T04:44:01;1.08;;;0.43;;
82304;SDS011;71914;47.382;8.168;2024-01-25T04:46:26;1.00;;;0.40;;
82304;SDS011;71914;47.382;8.168;2024-01-25T04:48:52;0.75;;;0.50;;
82304;SDS011;71914;47.382;8.168;2024-01-25T04:51:18;0.38;;;0.20;;
82304;SDS011;71914;47.382;8.168;2024-01-25T04:53:45;0.55;;;0.30;;
82304;SDS011;71914;47.382;8.168;2024-01-25T04:56:12;0.60;;;0.50;;
82304;SDS011;71914;47.382;8.168;2024-01-25T04:58:38;0.47;;;0.35;;
82304;SDS011;71914;47.382;8.168;2024-01-25T05:01:03;0.60;;;0.40;;
82304;SDS011;71914;47.382;8.168;2024-01-25T05:03:29;1.23;;;0.47;;
82304;SDS011;71914;47.382;8.168;2024-01-25T05:05:55;1.55;;;0.50;;
82304;SDS011;71914;47.382;8.168;2024-01-25T05:08:21;0.20;;;0.20;;
82304;SDS011;71914;47.382;8.168;2024-01-25T05:10:47;0.60;;;0.30;;
82304;SDS011;71914;47.382;8.168;2024-01-25T05:13:14;1.42;;;0.47;;
82304;SDS011;71914;47.382;8.168;2024-01-25T05:15:39;0.80;;;0.38;;
82304;SDS011;71914;47.382;8.168;2024-01-25T05:18:05;1.13;;;0.68;;
82304;SDS011;71914;47.382;8.168;2024-01-25T05:20:31;0.43;;;0.20;;
82304;SDS011;71914;47.382;8.168;2024-01-25T05:22:58;0.93;;;0.40;;
82304;SDS011;71914;47.382;8.168;2024-01-25T05:25:23;0.68;;;0.43;;
82304;SDS011;71914;47.382;8.168;2024-01-25T05:27:50;1.25;;;0.60;;
82304;SDS011;71914;47.382;8.168;2024-01-25T05:30:17;0.88;;;0.50;;
82304;SDS011;71914;47.382;8.168;2024-01-25T05:32:42;0.57;;;0.40;;
82304;SDS011;71914;47.382;8.168;2024-01-25T05:35:08;0.57;;;0.40;;
82304;SDS011;71914;47.382;8.168;2024-01-25T05:37:34;0.77;;;0.40;;
82304;SDS011;71914;47.382;8.168;2024-01-25T05:40:00;2.03;;;0.70;;
82304;SDS011;71914;47.382;8.168;2024-01-25T05:42:25;0.85;;;0.35;;
82304;SDS011;71914;47.382;8.168;2024-01-25T05:44:51;0.93;;;0.50;;
82304;SDS011;71914;47.382;8.168;2024-01-25T05:47:18;0.85;;;0.50;;
82304;SDS011;71914;47.382;8.168;2024-01-25T05:49:43;1.02;;;0.40;;
82304;SDS011;71914;47.382;8.168;2024-01-25T05:52:09;1.45;;;0.55;;
82304;SDS011;71914;47.382;8.168;2024-01-25T05:54:35;0.60;;;0.40;;
82304;SDS011;71914;47.382;8.168;2024-01-25T05:57:01;0.88;;;0.32;;
82304;SDS011;71914;47.382;8.168;2024-01-25T05:59:27;0.98;;;0.40;;
82304;SDS011;71914;47.382;8.168;2024-01-25T06:01:52;1.48;;;0.77;;
82304;SDS011;71914;47.382;8.168;2024-01-25T06:04:19;1.35;;;0.60;;
82304;SDS011;71914;47.382;8.168;2024-01-25T06:06:45;0.32;;;0.20;;
82304;SDS011;71914;47.382;8.168;2024-01-25T06:09:11;0.70;;;0.43;;
82304;SDS011;71914;47.382;8.168;2024-01-25T06:11:36;1.15;;;0.45;;
82304;SDS011;71914;47.382;8.168;2024-01-25T06:14:02;1.10;;;0.52;;
82304;SDS011;71914;47.382;8.168;2024-01-25T06:16:30;0.70;;;0.40;;
82304;SDS011;71914;47.382;8.168;2024-01-25T06:18:55;0.50;;;0.40;;
82304;SDS011;71914;47.382;8.168;2024-01-25T06:21:22;0.55;;;0.30;;
82304;SDS011;71914;47.382;8.168;2024-01-25T06:23:48;2.42;;;0.45;;
82304;SDS011;71914;47.382;8.168;2024-01-25T06:26:13;0.60;;;0.38;;
82304;SDS011;71914;47.382;8.168;2024-01-25T06:28:39;1.30;;;0.40;;
82304;SDS011;71914;47.382;8.168;2024-01-25T06:31:06;1.38;;;0.70;;
82304;SDS011;71914;47.382;8.168;2024-01-25T06:33:31;0.73;;;0.68;;
82304;SDS011;71914;47.382;8.168;2024-01-25T06:35:57;1.15;;;0.60;;
82304;SDS011;71914;47.382;8.168;2024-01-25T06:38:24;1.45;;;0.70;;
82304;SDS011;71914;47.382;8.168;2024-01-25T06:40:50;3.13;;;0.90;;
82304;SDS011;71914;47.382;8.168;2024-01-25T06:43:16;2.42;;;1.10;;
82304;SDS011;71914;47.382;8.168;2024-01-25T06:45:41;1.00;;;0.82;;
82304;SDS011;71914;47.382;8.168;2024-01-25T06:48:07;4.38;;;1.10;;
82304;SDS011;71914;47.382;8.168;2024-01-25T06:50:36;2.67;;;1.10;;
82304;SDS011;71914;47.382;8.168;2024-01-25T06:53:02;1.70;;;0.93;;
82304;SDS011;71914;47.382;8.168;2024-01-25T06:55:29;2.17;;;0.80;;
82304;SDS011;71914;47.382;8.168;2024-01-25T06:57:54;1.05;;;0.70;;
82304;SDS011;71914;47.382;8.168;2024-01-25T07:00:20;1.45;;;1.02;;
82304;SDS011;71914;47.382;8.168;2024-01-25T07:02:46;2.50;;;1.00;;
82304;SDS011;71914;47.382;8.168;2024-01-25T07:05:12;1.75;;;0.90;;
82304;SDS011;71914;47.382;8.168;2024-01-25T07:07:38;3.70;;;1.20;;
82304;SDS011;71914;47.382;8.168;2024-01-25T07:12:32;2.53;;;0.70;;
82304;SDS011;71914;47.382;8.168;2024-01-25T07:14:57;4.45;;;1.40;;
82304;SDS011;71914;47.382;8.168;2024-01-25T07:17:23;1.33;;;0.88;;
82304;SDS011;71914;47.382;8.168;2024-01-25T07:19:48;1.63;;;0.82;;
82304;SDS011;71914;47.382;8.168;2024-01-25T07:22:14;1.95;;;0.85;;
82304;SDS011;71914;47.382;8.168;2024-01-25T07:24:42;2.42;;;1.08;;
82304;SDS011;71914;47.382;8.168;2024-01-25T07:27:08;1.70;;;0.85;;
82304;SDS011;71914;47.382;8.168;2024-01-25T07:29:36;4.05;;;1.00;;
82304;SDS011;71914;47.382;8.168;2024-01-25T07:32:02;1.20;;;0.80;;
82304;SDS011;71914;47.382;8.168;2024-01-25T07:34:28;3.38;;;1.00;;
82304;SDS011;71914;47.382;8.168;2024-01-25T07:36:54;1.63;;;0.80;;
82304;SDS011;71914;47.382;8.168;2024-01-25T07:39:19;2.10;;;1.10;;
82304;SDS011;71914;47.382;8.168;2024-01-25T07:41:45;2.13;;;1.10;;
82304;SDS011;71914;47.382;8.168;2024-01-25T07:44:11;2.40;;;0.80;;
82304;SDS011;71914;47.382;8.168;2024-01-25T07:46:38;1.60;;;1.00;;
82304;SDS011;71914;47.382;8.168;2024-01-25T07:49:04;4.45;;;1.70;;
82304;SDS011;71914;47.382;8.168;2024-01-25T07:51:30;2.30;;;1.17;;
82304;SDS011;71914;47.382;8.168;2024-01-25T07:53:56;2.20;;;1.00;;
82304;SDS011;71914;47.382;8.168;2024-01-25T07:56:22;2.22;;;0.90;;
82304;SDS011;71914;47.382;8.168;2024-01-25T07:58:47;1.75;;;0.90;;
82304;SDS011;71914;47.382;8.168;2024-01-25T08:01:16;1.85;;;1.30;;
82304;SDS011;71914;47.382;8.168;2024-01-25T08:03:44;0.88;;;0.60;;
82304;SDS011;71914;47.382;8.168;2024-01-25T08:06:10;0.60;;;0.32;;
82304;SDS011;71914;47.382;8.168;2024-01-25T08:08:36;0.98;;;0.68;;
82304;SDS011;71914;47.382;8.168;2024-01-25T08:11:02;1.88;;;0.50;;
82304;SDS011;71914;47.382;8.168;2024-01-25T08:13:29;1.70;;;0.70;;
82304;SDS011;71914;47.382;8.168;2024-01-25T08:15:55;0.90;;;0.50;;
82304;SDS011;71914;47.382;8.168;2024-01-25T08:18:21;1.10;;;0.70;;
82304;SDS011;71914;47.382;8.168;2024-01-25T08:20:49;0.98;;;0.70;;
82304;SDS011;71914;47.382;8.168;2024-01-25T08:23:18;1.15;;;0.70;;
82304;SDS011;71914;47.382;8.168;2024-01-25T08:25:44;1.02;;;0.50;;
82304;SDS011;71914;47.382;8.168;2024-01-25T08:28:09;1.10;;;0.80;;
82304;SDS011;71914;47.382;8.168;2024-01-25T08:30:35;0.75;;;0.50;;
82304;SDS011;71914;47.382;8.168;2024-01-25T08:33:01;1.05;;;0.52;;
82304;SDS011;71914;47.382;8.168;2024-01-25T08:35:26;1.13;;;0.60;;
82304;SDS011;71914;47.382;8.168;2024-01-25T08:37:53;1.55;;;1.00;;
82304;SDS011;71914;47.382;8.168;2024-01-25T08:40:19;1.10;;;0.70;;
82304;SDS011;71914;47.382;8.168;2024-01-25T08:42:44;1.27;;;0.50;;
82304;SDS011;71914;47.382;8.168;2024-01-25T08:45:10;0.60;;;0.52;;
82304;SDS011;71914;47.382;8.168;2024-01-25T08:47:36;0.80;;;0.50;;
82304;SDS011;71914;47.382;8.168;2024-01-25T08:50:02;0.80;;;0.70;;
82304;SDS011;71914;47.382;8.168;2024-01-25T08:52:28;0.63;;;0.40;;
82304;SDS011;71914;47.382;8.168;2024-01-25T08:54:56;0.70;;;0.40;;
82304;SDS011;71914;47.382;8.168;2024-01-25T08:57:21;0.88;;;0.50;;
82304;SDS011;71914;47.382;8.168;2024-01-25T08:59:47;0.70;;;0.50;;
82304;SDS011;71914;47.382;8.168;2024-01-25T09:02:13;1.23;;;0.80;;
82304;SDS011;71914;47.382;8.168;2024-01-25T09:04:38;3.55;;;0.60;;
82304;SDS011;71914;47.382;8.168;2024-01-25T09:07:08;2.85;;;0.60;;
82304;SDS011;71914;47.382;8.168;2024-01-25T09:09:34;1.85;;;0.90;;
82304;SDS011;71914;47.382;8.168;2024-01-25T09:12:01;1.67;;;0.60;;
82304;SDS011;71914;47.382;8.168;2024-01-25T09:14:26;1.23;;;0.82;;
82304;SDS011;71914;47.382;8.168;2024-01-25T09:16:52;1.20;;;0.90;;
82304;SDS011;71914;47.382;8.168;2024-01-25T09:19:17;1.20;;;0.65;;
82304;SDS011;71914;47.382;8.168;2024-01-25T09:21:43;1.25;;;0.63;;
82304;SDS011;71914;47.382;8.168;2024-01-25T09:24:08;1.60;;;0.80;;
82304;SDS011;71914;47.382;8.168;2024-01-25T09:26:34;3.55;;;1.08;;
82304;SDS011;71914;47.382;8.168;2024-01-25T09:29:01;1.05;;;0.73;;
82304;SDS011;71914;47.382;8.168;2024-01-25T09:31:27;3.35;;;1.10;;
82304;SDS011;71914;47.382;8.168;2024-01-25T09:33:52;1.92;;;0.80;;
82304;SDS011;71914;47.382;8.168;2024-01-25T09:36:18;1.80;;;0.95;;
82304;SDS011;71914;47.382;8.168;2024-01-25T09:38:43;2.65;;;0.70;;
82304;SDS011;71914;47.382;8.168;2024-01-25T09:41:09;5.80;;;2.85;;
82304;SDS011;71914;47.382;8.168;2024-01-25T09:43:35;2.40;;;1.30;;
82304;SDS011;71914;47.382;8.168;2024-01-25T09:46:03;2.10;;;0.80;;
82304;SDS011;71914;47.382;8.168;2024-01-25T09:48:32;1.10;;;0.60;;
82304;SDS011;71914;47.382;8.168;2024-01-25T09:50:58;0.85;;;0.55;;
82304;SDS011;71914;47.382;8.168;2024-01-25T09:53:24;1.55;;;0.80;;
82304;SDS011;71914;47.382;8.168;2024-01-25T09:55:54;1.63;;;0.68;;
82304;SDS011;71914;47.382;8.168;2024-01-25T09:58:26;2.05;;;1.10;;
82304;SDS011;71914;47.382;8.168;2024-01-25T10:03:26;1.20;;;0.80;;
82304;SDS011;71914;47.382;8.168;2024-01-25T10:05:52;2.13;;;0.82;;
82304;SDS011;71914;47.382;8.168;2024-01-25T10:08:17;1.42;;;0.85;;
82304;SDS011;71914;47.382;8.168;2024-01-25T10:10:45;1.13;;;0.70;;
82304;SDS011;71914;47.382;8.168;2024-01-25T10:13:12;1.00;;;0.80;;
82304;SDS011;71914;47.382;8.168;2024-01-25T10:15:38;1.20;;;0.75;;
82304;SDS011;71914;47.382;8.168;2024-01-25T10:18:03;4.70;;;1.10;;
82304;SDS011;71914;47.382;8.168;2024-01-25T10:20:32;3.63;;;0.80;;
82304;SDS011;71914;47.382;8.168;2024-01-25T10:22:57;1.60;;;0.80;;
82304;SDS011;71914;47.382;8.168;2024-01-25T10:25:23;1.40;;;0.82;;
82304;SDS011;71914;47.382;8.168;2024-01-25T10:27:49;0.77;;;0.47;;
82304;SDS011;71914;47.382;8.168;2024-01-25T10:30:14;1.42;;;0.88;;
82304;SDS011;71914;47.382;8.168;2024-01-25T10:32:41;2.28;;;1.65;;
82304;SDS011;71914;47.382;8.168;2024-01-25T10:35:07;1.80;;;1.10;;
82304;SDS011;71914;47.382;8.168;2024-01-25T10:37:35;1.35;;;1.00;;
82304;SDS011;71914;47.382;8.168;2024-01-25T10:40:03;3.05;;;1.20;;
82304;SDS011;71914;47.382;8.168;2024-01-25T10:42:30;1.58;;;1.00;;
82304;SDS011;71914;47.382;8.168;2024-01-25T10:44:55;2.75;;;1.10;;
82304;SDS011;71914;47.382;8.168;2024-01-25T10:47:21;2.05;;;0.90;;
82304;SDS011;71914;47.382;8.168;2024-01-25T10:49:48;2.38;;;1.27;;
82304;SDS011;71914;47.382;8.168;2024-01-25T10:52:14;1.95;;;1.20;;
82304;SDS011;71914;47.382;8.168;2024-01-25T10:54:42;2.65;;;0.90;;
82304;SDS011;71914;47.382;8.168;2024-01-25T10:57:08;1.67;;;1.05;;
82304;SDS011;71914;47.382;8.168;2024-01-25T10:59:33;1.83;;;0.98;;
82304;SDS011;71914;47.382;8.168;2024-01-25T11:02:00;1.10;;;0.77;;
82304;SDS011;71914;47.382;8.168;2024-01-25T11:04:26;2.03;;;1.13;;
82304;SDS011;71914;47.382;8.168;2024-01-25T11:06:54;2.42;;;1.42;;
82304;SDS011;71914;47.382;8.168;2024-01-25T11:09:31;3.40;;;1.20;;
82304;SDS011;71914;47.382;8.168;2024-01-25T11:11:58;1.90;;;1.20;;
82304;SDS011;71914;47.382;8.168;2024-01-25T11:14:25;1.80;;;1.25;;
82304;SDS011;71914;47.382;8.168;2024-01-25T11:16:51;1.85;;;1.23;;
82304;SDS011;71914;47.382;8.168;2024-01-25T11:19:17;4.15;;;2.10;;
82304;SDS011;71914;47.382;8.168;2024-01-25T11:24:12;3.15;;;1.60;;
82304;SDS011;71914;47.382;8.168;2024-01-25T11:26:38;1.90;;;1.23;;
82304;SDS011;71914;47.382;8.168;2024-01-25T11:29:06;2.50;;;0.93;;
82304;SDS011;71914;47.382;8.168;2024-01-25T11:31:31;3.85;;;1.10;;
82304;SDS011;71914;47.382;8.168;2024-01-25T11:33:57;2.53;;;1.00;;
82304;SDS011;71914;47.382;8.168;2024-01-25T11:36:26;1.27;;;1.00;;
82304;SDS011;71914;47.382;8.168;2024-01-25T11:38:52;1.50;;;1.00;;
82304;SDS011;71914;47.382;8.168;2024-01-25T11:41:18;3.25;;;0.90;;
82304;SDS011;71914;47.382;8.168;2024-01-25T11:43:44;1.42;;;0.80;;
82304;SDS011;71914;47.382;8.168;2024-01-25T11:46:11;2.63;;;1.10;;
82304;SDS011;71914;47.382;8.168;2024-01-25T11:48:38;2.88;;;1.10;;
82304;SDS011;71914;47.382;8.168;2024-01-25T11:51:05;1.75;;;1.25;;
82304;SDS011;71914;47.382;8.168;2024-01-25T11:53:30;2.40;;;1.15;;
82304;SDS011;71914;47.382;8.168;2024-01-25T11:55:56;1.40;;;0.60;;
82304;SDS011;71914;47.382;8.168;2024-01-25T11:58:22;1.20;;;0.80;;
82304;SDS011;71914;47.382;8.168;2024-01-25T12:00:48;1.50;;;0.80;;
82304;SDS011;71914;47.382;8.168;2024-01-25T12:03:15;1.08;;;0.50;;
82304;SDS011;71914;47.382;8.168;2024-01-25T12:05:41;2.58;;;0.88;;
82304;SDS011;71914;47.382;8.168;2024-01-25T12:08:08;1.10;;;0.50;;
82304;SDS011;71914;47.382;8.168;2024-01-25T12:10:34;2.00;;;0.80;;
82304;SDS011;71914;47.382;8.168;2024-01-25T12:13:00;2.75;;;0.90;;
82304;SDS011;71914;47.382;8.168;2024-01-25T12:15:25;2.08;;;1.45;;
82304;SDS011;71914;47.382;8.168;2024-01-25T12:17:51;2.47;;;1.73;;
82304;SDS011;71914;47.382;8.168;2024-01-25T12:20:19;1.67;;;1.10;;
82304;SDS011;71914;47.382;8.168;2024-01-25T12:22:45;1.25;;;0.93;;
82304;SDS011;71914;47.382;8.168;2024-01-25T12:25:13;1.05;;;0.75;;
82304;SDS011;71914;47.382;8.168;2024-01-25T12:27:39;2.25;;;1.50;;
82304;SDS011;71914;47.382;8.168;2024-01-25T12:30:10;3.17;;;1.23;;
82304;SDS011;71914;47.382;8.168;2024-01-25T12:32:36;2.00;;;0.93;;
82304;SDS011;71914;47.382;8.168;2024-01-25T12:35:02;1.60;;;0.52;;
82304;SDS011;71914;47.382;8.168;2024-01-25T12:37:30;1.48;;;0.60;;
82304;SDS011;71914;47.382;8.168;2024-01-25T12:39:56;1.98;;;0.70;;
82304;SDS011;71914;47.382;8.168;2024-01-25T12:42:21;2.85;;;0.60;;
82304;SDS011;71914;47.382;8.168;2024-01-25T12:44:48;1.10;;;0.70;;
82304;SDS011;71914;47.382;8.168;2024-01-25T12:47:16;1.60;;;0.55;;
82304;SDS011;71914;47.382;8.168;2024-01-25T12:49:41;0.88;;;0.40;;
82304;SDS011;71914;47.382;8.168;2024-01-25T12:52:08;2.63;;;0.57;;
82304;SDS011;71914;47.382;8.168;2024-01-25T12:54:35;1.55;;;0.85;;
82304;SDS011;71914;47.382;8.168;2024-01-25T12:57:02;2.50;;;1.30;;
82304;SDS011;71914;47.382;8.168;2024-01-25T12:59:27;3.03;;;1.38;;
82304;SDS011;71914;47.382;8.168;2024-01-25T13:01:53;1.73;;;1.17;;
82304;SDS011;71914;47.382;8.168;2024-01-25T13:04:19;1.58;;;0.90;;
82304;SDS011;71914;47.382;8.168;2024-01-25T13:09:11;2.70;;;0.98;;
82304;SDS011;71914;47.382;8.168;2024-01-25T13:11:38;3.25;;;0.90;;
82304;SDS011;71914;47.382;8.168;2024-01-25T13:14:04;2.03;;;0.93;;
82304;SDS011;71914;47.382;8.168;2024-01-25T13:16:32;1.05;;;0.65;;
82304;SDS011;71914;47.382;8.168;2024-01-25T13:18:58;0.90;;;0.70;;
82304;SDS011;71914;47.382;8.168;2024-01-25T13:21:25;1.25;;;0.80;;
82304;SDS011;71914;47.382;8.168;2024-01-25T13:23:50;1.67;;;0.80;;
82304;SDS011;71914;47.382;8.168;2024-01-25T13:26:16;1.10;;;0.60;;
82304;SDS011;71914;47.382;8.168;2024-01-25T13:28:43;1.33;;;0.65;;
82304;SDS011;71914;47.382;8.168;2024-01-25T13:31:08;0.98;;;0.60;;
82304;SDS011;71914;47.382;8.168;2024-01-25T13:33:34;1.30;;;0.70;;
82304;SDS011;71914;47.382;8.168;2024-01-25T13:36:00;1.13;;;0.73;;
82304;SDS011;71914;47.382;8.168;2024-01-25T13:38:25;0.88;;;0.60;;
82304;SDS011;71914;47.382;8.168;2024-01-25T13:40:51;0.77;;;0.57;;
82304;SDS011;71914;47.382;8.168;2024-01-25T13:43:17;1.05;;;0.60;;
82304;SDS011;71914;47.382;8.168;2024-01-25T13:45:44;1.55;;;0.70;;
82304;SDS011;71914;47.382;8.168;2024-01-25T13:48:10;0.60;;;0.40;;
82304;SDS011;71914;47.382;8.168;2024-01-25T13:50:36;0.75;;;0.50;;
82304;SDS011;71914;47.382;8.168;2024-01-25T13:53:01;0.93;;;0.40;;
82304;SDS011;71914;47.382;8.168;2024-01-25T13:55:27;0.95;;;0.50;;
82304;SDS011;71914;47.382;8.168;2024-01-25T13:57:53;0.47;;;0.30;;
82304;SDS011;71914;47.382;8.168;2024-01-25T14:00:18;1.35;;;0.52;;
82304;SDS011;71914;47.382;8.168;2024-01-25T14:02:47;2.47;;;0.50;;
82304;SDS011;71914;47.382;8.168;2024-01-25T14:05:13;1.00;;;0.47;;
82304;SDS011;71914;47.382;8.168;2024-01-25T14:07:38;0.75;;;0.40;;
82304;SDS011;71914;47.382;8.168;2024-01-25T14:10:04;0.88;;;0.30;;
82304;SDS011;71914;47.382;8.168;2024-01-25T14:12:30;0.30;;;0.20;;
82304;SDS011;71914;47.382;8.168;2024-01-25T14:14:56;0.55;;;0.35;;
82304;SDS011;71914;47.382;8.168;2024-01-25T14:17:21;0.98;;;0.30;;
82304;SDS011;71914;47.382;8.168;2024-01-25T14:19:49;0.80;;;0.40;;
82304;SDS011;71914;47.382;8.168;2024-01-25T14:22:14;0.65;;;0.40;;
82304;SDS011;71914;47.382;8.168;2024-01-25T14:24:40;2.67;;;1.95;;
82304;SDS011;71914;47.382;8.168;2024-01-25T14:27:05;0.93;;;0.32;;
82304;SDS011;71914;47.382;8.168;2024-01-25T14:29:31;0.70;;;0.30;;
82304;SDS011;71914;47.382;8.168;2024-01-25T14:31:59;0.75;;;0.40;;
82304;SDS011;71914;47.382;8.168;2024-01-25T14:34:25;1.48;;;0.65;;
82304;SDS011;71914;47.382;8.168;2024-01-25T14:36:52;1.90;;;0.93;;
82304;SDS011;71914;47.382;8.168;2024-01-25T14:39:17;0.75;;;0.30;;
82304;SDS011;71914;47.382;8.168;2024-01-25T14:41:43;1.10;;;0.68;;
82304;SDS011;71914;47.382;8.168;2024-01-25T14:46:35;1.15;;;0.45;;
82304;SDS011;71914;47.382;8.168;2024-01-25T14:49:00;0.40;;;0.30;;
82304;SDS011;71914;47.382;8.168;2024-01-25T14:51:26;0.95;;;0.60;;
82304;SDS011;71914;47.382;8.168;2024-01-25T14:53:53;1.13;;;0.50;;
82304;SDS011;71914;47.382;8.168;2024-01-25T14:56:19;0.77;;;0.30;;
82304;SDS011;71914;47.382;8.168;2024-01-25T14:58:44;1.17;;;0.60;;
82304;SDS011;71914;47.382;8.168;2024-01-25T15:01:12;1.33;;;0.70;;